sensor_id;sensor_type;location;lat;lon;timestamp;pressure;altitude;pressure_sealevel;temperature;humidity
75767;BME280;64378;55.596;13.014;2023-06-10T00:01:21;102239.97;;;23.52;35.83
75767;BME280;64378;55.596;13.014;2023-06-10T00:03:47;102230.03;;;23.51;35.80
75767;BME280;64378;55.596;13.014;2023-06-10T00:06:13;102241.06;;;23.51;35.97
75767;BME280;64378;55.596;13.014;2023-06-10T00:08:38;102239.41;;;23.50;35.88
75767;BME280;64378;55.596;13.014;2023-06-10T00:11:04;102237.50;;;23.51;35.87
75767;BME280;64378;55.596;13.014;2023-06-10T00:13:30;102234.72;;;23.51;35.98
75767;BME280;64378;55.596;13.014;2023-06-10T00:15:55;102238.56;;;23.50;35.73
75767;BME280;64378;55.596;13.014;2023-06-10T00:18:20;102237.72;;;23.49;35.66
75767;BME280;64378;55.596;13.014;2023-06-10T00:20:47;102238.81;;;23.48;35.66
75767;BME280;64378;55.596;13.014;2023-06-10T00:23:14;102235.47;;;23.46;35.74
75767;BME280;64378;55.596;13.014;2023-06-10T00:25:39;102237.41;;;23.46;35.62
75767;BME280;64378;55.596;13.014;2023-06-10T00:28:04;102243.72;;;23.46;35.85
75767;BME280;64378;55.596;13.014;2023-06-10T00:30:30;102235.72;;;23.45;35.81
75767;BME280;64378;55.596;13.014;2023-06-10T00:32:55;102242.31;;;23.44;35.61
75767;BME280;64378;55.596;13.014;2023-06-10T00:35:20;102232.38;;;23.43;35.84
75767;BME280;64378;55.596;13.014;2023-06-10T00:37:46;102230.72;;;23.42;35.71
75767;BME280;64378;55.596;13.014;2023-06-10T00:40:11;102237.09;;;23.42;35.95
75767;BME280;64378;55.596;13.014;2023-06-10T00:42:36;102234.31;;;23.42;35.41
75767;BME280;64378;55.596;13.014;2023-06-10T00:45:02;102238.16;;;23.41;35.51
75767;BME280;64378;55.596;13.014;2023-06-10T00:47:27;102242.00;;;23.40;35.44
75767;BME280;64378;55.596;13.014;2023-06-10T00:49:53;102240.91;;;23.41;35.63
75767;BME280;64378;55.596;13.014;2023-06-10T00:52:19;102239.25;;;23.40;35.48
75767;BME280;64378;55.596;13.014;2023-06-10T00:54:47;102239.25;;;23.40;35.63
75767;BME280;64378;55.596;13.014;2023-06-10T00:57:12;102244.75;;;23.40;35.67
75767;BME280;64378;55.596;13.014;2023-06-10T00:59:39;102234.81;;;23.39;35.55
75767;BME280;64378;55.596;13.014;2023-06-10T01:02:04;102237.81;;;23.38;35.67
75767;BME280;64378;55.596;13.014;2023-06-10T01:04:30;102241.66;;;23.37;35.49
75767;BME280;64378;55.596;13.014;2023-06-10T01:07:17;102236.13;;;23.37;35.64
75767;BME280;64378;55.596;13.014;2023-06-10T01:09:49;102246.34;;;23.36;35.81
75767;BME280;64378;55.596;13.014;2023-06-10T01:14:46;102246.34;;;23.36;35.62
75767;BME280;64378;55.596;13.014;2023-06-10T01:17:13;102245.47;;;23.36;35.75
75767;BME280;64378;55.596;13.014;2023-06-10T01:19:41;102236.41;;;23.35;35.58
75767;BME280;64378;55.596;13.014;2023-06-10T01:22:08;102237.22;;;23.36;35.57
75767;BME280;64378;55.596;13.014;2023-06-10T01:24:35;102231.72;;;23.36;35.62
75767;BME280;64378;55.596;13.014;2023-06-10T01:27:01;102234.72;;;23.34;35.54
75767;BME280;64378;55.596;13.014;2023-06-10T01:29:33;102231.97;;;23.34;35.51
75767;BME280;64378;55.596;13.014;2023-06-10T01:32:45;102243.22;;;23.33;35.60
75767;BME280;64378;55.596;13.014;2023-06-10T01:34:51;102242.41;;;23.32;35.67
75767;BME280;64378;55.596;13.014;2023-06-10T01:37:17;102240.47;;;23.33;35.74
75767;BME280;64378;55.596;13.014;2023-06-10T01:39:43;102236.03;;;23.32;35.76
75767;BME280;64378;55.596;13.014;2023-06-10T01:42:12;102235.22;;;23.31;35.57
75767;BME280;64378;55.596;13.014;2023-06-10T01:44:39;102233.56;;;23.30;35.77
75767;BME280;64378;55.596;13.014;2023-06-10T01:47:04;102234.41;;;23.31;35.68
75767;BME280;64378;55.596;13.014;2023-06-10T01:49:29;102231.88;;;23.29;35.59
75767;BME280;64378;55.596;13.014;2023-06-10T01:51:54;102244.00;;;23.28;35.88
75767;BME280;64378;55.596;13.014;2023-06-10T01:54:20;102238.75;;;23.27;35.71
75767;BME280;64378;55.596;13.014;2023-06-10T01:56:45;102240.41;;;23.28;35.86
75767;BME280;64378;55.596;13.014;2023-06-10T01:59:10;102239.56;;;23.27;35.61
75767;BME280;64378;55.596;13.014;2023-06-10T02:01:35;102239.56;;;23.27;35.84
75767;BME280;64378;55.596;13.014;2023-06-10T02:04:01;102238.75;;;23.27;35.63
75767;BME280;64378;55.596;13.014;2023-06-10T02:06:26;102240.41;;;23.28;35.78
75767;BME280;64378;55.596;13.014;2023-06-10T02:08:51;102240.66;;;23.26;35.58
75767;BME280;64378;55.596;13.014;2023-06-10T02:11:16;102247.00;;;23.27;35.59
75767;BME280;64378;55.596;13.014;2023-06-10T02:13:42;102240.66;;;23.26;35.76
75767;BME280;64378;55.596;13.014;2023-06-10T02:16:07;102240.66;;;23.26;35.62
75767;BME280;64378;55.596;13.014;2023-06-10T02:18:32;102240.91;;;23.25;35.79
75767;BME280;64378;55.596;13.014;2023-06-10T02:20:58;102248.31;;;23.24;35.68
75767;BME280;64378;55.596;13.014;2023-06-10T02:23:23;102244.47;;;23.25;35.79
75767;BME280;64378;55.596;13.014;2023-06-10T02:25:49;102244.47;;;23.25;35.81
75767;BME280;64378;55.596;13.014;2023-06-10T02:28:14;102240.06;;;23.24;35.78
75767;BME280;64378;55.596;13.014;2023-06-10T02:30:40;102232.06;;;23.23;35.73
75767;BME280;64378;55.596;13.014;2023-06-10T02:33:06;102240.31;;;23.23;35.66
75767;BME280;64378;55.596;13.014;2023-06-10T02:35:34;102244.75;;;23.24;35.70
75767;BME280;64378;55.596;13.014;2023-06-10T02:38:00;102237.56;;;23.23;35.88
75767;BME280;64378;55.596;13.014;2023-06-10T02:40:25;102241.41;;;23.22;36.04
75767;BME280;64378;55.596;13.014;2023-06-10T02:42:50;102240.56;;;23.21;35.88
75767;BME280;64378;55.596;13.014;2023-06-10T02:45:16;102241.63;;;23.20;36.14
75767;BME280;64378;55.596;13.014;2023-06-10T02:47:41;102237.81;;;23.21;36.07
75767;BME280;64378;55.596;13.014;2023-06-10T02:50:07;102245.25;;;23.21;36.09
75767;BME280;64378;55.596;13.014;2023-06-10T02:52:32;102247.16;;;23.20;35.87
75767;BME280;64378;55.596;13.014;2023-06-10T02:54:57;102241.63;;;23.20;36.18
75767;BME280;64378;55.596;13.014;2023-06-10T02:57:23;102244.38;;;23.20;36.37
75767;BME280;64378;55.596;13.014;2023-06-10T02:59:48;102238.88;;;23.20;36.14
75767;BME280;64378;55.596;13.014;2023-06-10T03:02:13;102242.72;;;23.19;36.11
75767;BME280;64378;55.596;13.014;2023-06-10T03:04:39;102247.72;;;23.22;36.24
75767;BME280;64378;55.596;13.014;2023-06-10T03:07:04;102242.00;;;23.24;36.16
75767;BME280;64378;55.596;13.014;2023-06-10T03:09:32;102252.16;;;23.23;36.05
75767;BME280;64378;55.596;13.014;2023-06-10T03:11:57;102250.84;;;23.26;36.06
75767;BME280;64378;55.596;13.014;2023-06-10T03:14:22;102244.00;;;23.28;36.32
75767;BME280;64378;55.596;13.014;2023-06-10T03:16:49;102243.50;;;23.31;36.05
75767;BME280;64378;55.596;13.014;2023-06-10T03:19:15;102248.50;;;23.34;35.98
75767;BME280;64378;55.596;13.014;2023-06-10T03:21:43;102247.16;;;23.37;35.96
75767;BME280;64378;55.596;13.014;2023-06-10T03:24:09;102248.34;;;23.41;36.12
75767;BME280;64378;55.596;13.014;2023-06-10T03:26:35;102238.75;;;23.43;36.06
75767;BME280;64378;55.596;13.014;2023-06-10T03:29:01;102249.00;;;23.48;35.88
75767;BME280;64378;55.596;13.014;2023-06-10T03:31:26;102249.59;;;23.50;35.87
75767;BME280;64378;55.596;13.014;2023-06-10T03:33:51;102238.31;;;23.51;35.83
75767;BME280;64378;55.596;13.014;2023-06-10T03:36:16;102255.19;;;23.55;35.77
75767;BME280;64378;55.596;13.014;2023-06-10T03:38:42;102250.25;;;23.57;35.51
75767;BME280;64378;55.596;13.014;2023-06-10T03:41:07;102248.91;;;23.59;35.66
75767;BME280;64378;55.596;13.014;2023-06-10T03:43:32;102245.31;;;23.59;35.56
75767;BME280;64378;55.596;13.014;2023-06-10T03:45:57;102244.22;;;23.60;35.59
75767;BME280;64378;55.596;13.014;2023-06-10T03:48:23;102246.75;;;23.61;35.69
75767;BME280;64378;55.596;13.014;2023-06-10T03:50:48;102243.72;;;23.63;35.72
75767;BME280;64378;55.596;13.014;2023-06-10T03:53:16;102235.22;;;23.64;35.90
75767;BME280;64378;55.596;13.014;2023-06-10T03:55:41;102242.41;;;23.65;35.54
75767;BME280;64378;55.596;13.014;2023-06-10T03:58:06;102237.47;;;23.67;35.63
75767;BME280;64378;55.596;13.014;2023-06-10T04:00:31;102239.16;;;23.68;35.86
75767;BME280;64378;55.596;13.014;2023-06-10T04:03:07;102247.97;;;23.70;35.79
75767;BME280;64378;55.596;13.014;2023-06-10T04:05:34;102244.13;;;23.71;35.57
75767;BME280;64378;55.596;13.014;2023-06-10T04:07:59;102246.66;;;23.73;35.75
75767;BME280;64378;55.596;13.014;2023-06-10T04:10:26;102243.38;;;23.76;35.79
75767;BME280;64378;55.596;13.014;2023-06-10T04:12:51;102248.63;;;23.77;35.79
75767;BME280;64378;55.596;13.014;2023-06-10T04:15:17;102243.75;;;23.79;35.76
75767;BME280;64378;55.596;13.014;2023-06-10T04:17:42;102239.06;;;23.80;35.77
75767;BME280;64378;55.596;13.014;2023-06-10T04:20:08;102236.06;;;23.81;35.71
75767;BME280;64378;55.596;13.014;2023-06-10T04:22:33;102235.81;;;23.83;35.83
75767;BME280;64378;55.596;13.014;2023-06-10T04:24:58;102243.56;;;23.86;35.60
75767;BME280;64378;55.596;13.014;2023-06-10T04:27:24;102251.31;;;23.89;35.75
75767;BME280;64378;55.596;13.014;2023-06-10T04:29:49;102244.47;;;23.91;35.56
75767;BME280;64378;55.596;13.014;2023-06-10T04:32:14;102246.75;;;23.94;35.84
75767;BME280;64378;55.596;13.014;2023-06-10T04:34:39;102249.22;;;23.96;35.73
75767;BME280;64378;55.596;13.014;2023-06-10T04:37:05;102245.13;;;23.98;35.85
75767;BME280;64378;55.596;13.014;2023-06-10T04:39:30;102236.34;;;24.01;35.44
75767;BME280;64378;55.596;13.014;2023-06-10T04:41:56;102244.94;;;24.05;35.62
75767;BME280;64378;55.596;13.014;2023-06-10T04:44:21;102246.63;;;24.06;35.58
75767;BME280;64378;55.596;13.014;2023-06-10T04:46:47;102249.69;;;24.09;35.46
75767;BME280;64378;55.596;13.014;2023-06-10T04:49:13;102248.34;;;24.12;35.50
75767;BME280;64378;55.596;13.014;2023-06-10T04:51:39;102251.69;;;24.13;35.55
75767;BME280;64378;55.596;13.014;2023-06-10T04:54:04;102244.84;;;24.16;35.52
75767;BME280;64378;55.596;13.014;2023-06-10T04:56:30;102247.09;;;24.19;35.48
75767;BME280;64378;55.596;13.014;2023-06-10T04:58:58;102249.31;;;24.22;35.55
75767;BME280;64378;55.596;13.014;2023-06-10T05:01:24;102250.72;;;24.24;35.62
75767;BME280;64378;55.596;13.014;2023-06-10T05:03:49;102246.63;;;24.27;35.50
75767;BME280;64378;55.596;13.014;2023-06-10T05:06:14;102256.31;;;24.29;35.48
75767;BME280;64378;55.596;13.014;2023-06-10T05:08:40;102266.00;;;24.32;35.23
75767;BME280;64378;55.596;13.014;2023-06-10T05:11:05;102258.31;;;24.34;35.47
75767;BME280;64378;55.596;13.014;2023-06-10T05:13:31;102258.88;;;24.36;35.17
75767;BME280;64378;55.596;13.014;2023-06-10T05:15:56;102264.97;;;24.38;35.33
75767;BME280;64378;55.596;13.014;2023-06-10T05:18:22;102261.72;;;24.41;35.20
75767;BME280;64378;55.596;13.014;2023-06-10T05:20:47;102261.44;;;24.42;35.18
75767;BME280;64378;55.596;13.014;2023-06-10T05:23:13;102268.41;;;24.45;35.16
75767;BME280;64378;55.596;13.014;2023-06-10T05:25:38;102275.34;;;24.47;35.16
75767;BME280;64378;55.596;13.014;2023-06-10T05:28:03;102270.41;;;24.49;34.89
75767;BME280;64378;55.596;13.014;2023-06-10T05:30:28;102267.38;;;24.51;35.39
75767;BME280;64378;55.596;13.014;2023-06-10T05:32:53;102270.47;;;24.54;35.33
75767;BME280;64378;55.596;13.014;2023-06-10T05:35:20;102273.81;;;24.56;35.05
75767;BME280;64378;55.596;13.014;2023-06-10T05:37:45;102279.06;;;24.58;34.92
75767;BME280;64378;55.596;13.014;2023-06-10T05:40:11;102272.44;;;24.59;35.19
75767;BME280;64378;55.596;13.014;2023-06-10T05:42:36;102277.47;;;24.62;35.39
75767;BME280;64378;55.596;13.014;2023-06-10T05:45:01;102273.34;;;24.64;35.38
75767;BME280;64378;55.596;13.014;2023-06-10T05:47:27;102276.66;;;24.66;35.25
75767;BME280;64378;55.596;13.014;2023-06-10T05:49:52;102268.16;;;24.68;35.04
75767;BME280;64378;55.596;13.014;2023-06-10T05:52:18;102273.41;;;24.69;35.26
75767;BME280;64378;55.596;13.014;2023-06-10T05:54:43;102266.53;;;24.72;34.93
75767;BME280;64378;55.596;13.014;2023-06-10T05:57:08;102278.13;;;24.74;35.17
75767;BME280;64378;55.596;13.014;2023-06-10T05:59:33;102261.31;;;24.75;35.31
75767;BME280;64378;55.596;13.014;2023-06-10T06:01:59;102270.19;;;24.77;35.09
75767;BME280;64378;55.596;13.014;2023-06-10T06:04:24;102269.91;;;24.79;35.31
75767;BME280;64378;55.596;13.014;2023-06-10T06:06:50;102267.72;;;24.81;35.32
75767;BME280;64378;55.596;13.014;2023-06-10T06:09:15;102269.41;;;24.82;35.20
75767;BME280;64378;55.596;13.014;2023-06-10T06:11:40;102261.69;;;24.84;35.05
75767;BME280;64378;55.596;13.014;2023-06-10T06:14:06;102266.94;;;24.85;35.35
75767;BME280;64378;55.596;13.014;2023-06-10T06:16:31;102266.44;;;24.88;35.26
75767;BME280;64378;55.596;13.014;2023-06-10T06:18:56;102268.94;;;24.90;35.17
75767;BME280;64378;55.596;13.014;2023-06-10T06:21:22;102261.47;;;24.90;35.29
75767;BME280;64378;55.596;13.014;2023-06-10T06:23:47;102272.28;;;24.92;35.43
75767;BME280;64378;55.596;13.014;2023-06-10T06:26:12;102260.97;;;24.93;35.37
75767;BME280;64378;55.596;13.014;2023-06-10T06:28:37;102268.16;;;24.94;35.13
75767;BME280;64378;55.596;13.014;2023-06-10T06:31:02;102258.78;;;24.95;35.13
75767;BME280;64378;55.596;13.014;2023-06-10T06:33:28;102270.41;;;24.97;35.46
75767;BME280;64378;55.596;13.014;2023-06-10T06:35:53;102264.88;;;24.97;35.37
75767;BME280;64378;55.596;13.014;2023-06-10T06:38:18;102259.06;;;24.99;35.42
75767;BME280;64378;55.596;13.014;2023-06-10T06:40:43;102262.41;;;25.01;35.05
75767;BME280;64378;55.596;13.014;2023-06-10T06:43:08;102266.84;;;25.02;35.03
75767;BME280;64378;55.596;13.014;2023-06-10T06:45:34;102260.22;;;25.03;35.42
75767;BME280;64378;55.596;13.014;2023-06-10T06:47:59;102272.13;;;25.03;34.92
75767;BME280;64378;55.596;13.014;2023-06-10T06:50:24;102273.22;;;25.02;35.07
75767;BME280;64378;55.596;13.014;2023-06-10T06:52:50;102267.41;;;25.04;35.22
75767;BME280;64378;55.596;13.014;2023-06-10T06:55:15;102281.81;;;25.06;35.24
75767;BME280;64378;55.596;13.014;2023-06-10T06:57:40;102273.50;;;25.06;35.08
75767;BME280;64378;55.596;13.014;2023-06-10T07:00:05;102277.13;;;25.06;35.20
75767;BME280;64378;55.596;13.014;2023-06-10T07:02:31;102272.44;;;25.07;35.29
75767;BME280;64378;55.596;13.014;2023-06-10T07:04:58;102279.63;;;25.08;34.91
75767;BME280;64378;55.596;13.014;2023-06-10T07:07:24;102276.03;;;25.07;35.12
75767;BME280;64378;55.596;13.014;2023-06-10T07:09:49;102271.34;;;25.08;35.08
75767;BME280;64378;55.596;13.014;2023-06-10T07:12:14;102292.34;;;25.09;34.80
75767;BME280;64378;55.596;13.014;2023-06-10T07:14:39;102289.56;;;25.09;34.96
75767;BME280;64378;55.596;13.014;2023-06-10T07:17:05;102280.47;;;25.08;35.05
75767;BME280;64378;55.596;13.014;2023-06-10T07:19:30;102291.25;;;25.10;34.79
75767;BME280;64378;55.596;13.014;2023-06-10T07:21:55;102298.72;;;25.09;35.23
75767;BME280;64378;55.596;13.014;2023-06-10T07:24:20;102307.81;;;25.10;34.94
75767;BME280;64378;55.596;13.014;2023-06-10T07:26:46;102304.22;;;25.09;35.08
75767;BME280;64378;55.596;13.014;2023-06-10T07:29:11;102311.44;;;25.10;35.02
75767;BME280;64378;55.596;13.014;2023-06-10T07:31:37;102315.00;;;25.11;35.06
75767;BME280;64378;55.596;13.014;2023-06-10T07:34:03;102305.91;;;25.10;34.87
75767;BME280;64378;55.596;13.014;2023-06-10T07:36:28;102318.59;;;25.11;34.80
75767;BME280;64378;55.596;13.014;2023-06-10T07:38:54;102314.19;;;25.10;34.88
75767;BME280;64378;55.596;13.014;2023-06-10T07:41:20;102321.34;;;25.11;35.02
75767;BME280;64378;55.596;13.014;2023-06-10T07:43:45;102319.44;;;25.12;35.06
75767;BME280;64378;55.596;13.014;2023-06-10T07:46:10;102319.44;;;25.12;34.79
75767;BME280;64378;55.596;13.014;2023-06-10T07:48:36;102318.59;;;25.11;35.05
75767;BME280;64378;55.596;13.014;2023-06-10T07:51:01;102323.88;;;25.13;34.68
75767;BME280;64378;55.596;13.014;2023-06-10T07:53:26;102335.16;;;25.11;34.96
75767;BME280;64378;55.596;13.014;2023-06-10T07:55:51;102317.78;;;25.11;35.05
75767;BME280;64378;55.596;13.014;2023-06-10T07:58:16;102310.31;;;25.11;34.79
75767;BME280;64378;55.596;13.014;2023-06-10T08:00:42;102320.53;;;25.11;34.99
75767;BME280;64378;55.596;13.014;2023-06-10T08:03:07;102315.00;;;25.11;34.95
75767;BME280;64378;55.596;13.014;2023-06-10T08:05:32;102328.00;;;25.10;35.00
75767;BME280;64378;55.596;13.014;2023-06-10T08:07:57;102332.69;;;25.10;34.90
75767;BME280;64378;55.596;13.014;2023-06-10T08:10:23;102321.63;;;25.10;35.02
75767;BME280;64378;55.596;13.014;2023-06-10T08:12:48;102311.66;;;25.09;34.97
75767;BME280;64378;55.596;13.014;2023-06-10T08:15:13;102318.03;;;25.09;35.11
75767;BME280;64378;55.596;13.014;2023-06-10T08:17:38;102320.81;;;25.09;34.84
75767;BME280;64378;55.596;13.014;2023-06-10T08:20:05;102314.44;;;25.09;34.82
75767;BME280;64378;55.596;13.014;2023-06-10T08:22:30;102318.28;;;25.08;34.99
75767;BME280;64378;55.596;13.014;2023-06-10T08:24:56;102317.19;;;25.09;35.08
75767;BME280;64378;55.596;13.014;2023-06-10T08:27:21;102308.91;;;25.09;34.99
75767;BME280;64378;55.596;13.014;2023-06-10T08:29:46;102311.66;;;25.09;35.06
75767;BME280;64378;55.596;13.014;2023-06-10T08:32:12;102329.34;;;25.08;34.93
75767;BME280;64378;55.596;13.014;2023-06-10T08:34:37;102333.19;;;25.07;34.90
75767;BME280;64378;55.596;13.014;2023-06-10T08:37:02;102331.00;;;25.09;34.80
75767;BME280;64378;55.596;13.014;2023-06-10T08:39:28;102328.53;;;25.07;35.00
75767;BME280;64378;55.596;13.014;2023-06-10T08:42:00;102337.63;;;25.08;34.82
75767;BME280;64378;55.596;13.014;2023-06-10T08:44:27;102334.84;;;25.08;35.12
75767;BME280;64378;55.596;13.014;2023-06-10T08:46:53;102334.03;;;25.07;34.85
75767;BME280;64378;55.596;13.014;2023-06-10T08:49:20;102338.72;;;25.07;35.06
75767;BME280;64378;55.596;13.014;2023-06-10T08:51:51;102334.28;;;25.06;35.07
75767;BME280;64378;55.596;13.014;2023-06-10T08:54:25;102340.66;;;25.06;35.09
75767;BME280;64378;55.596;13.014;2023-06-10T08:56:52;102341.75;;;25.05;35.06
75767;BME280;64378;55.596;13.014;2023-06-10T08:59:19;102335.13;;;25.06;35.21
75767;BME280;64378;55.596;13.014;2023-06-10T09:01:45;102349.75;;;25.07;35.01
75767;BME280;64378;55.596;13.014;2023-06-10T09:04:10;102336.22;;;25.05;34.84
75767;BME280;64378;55.596;13.014;2023-06-10T09:06:36;102348.38;;;25.04;35.01
75767;BME280;64378;55.596;13.014;2023-06-10T09:09:03;102333.72;;;25.04;34.85
75767;BME280;64378;55.596;13.014;2023-06-10T09:11:29;102344.75;;;25.04;34.86
75767;BME280;64378;55.596;13.014;2023-06-10T09:13:54;102352.22;;;25.03;35.14
75767;BME280;64378;55.596;13.014;2023-06-10T09:16:19;102345.84;;;25.03;34.87
75767;BME280;64378;55.596;13.014;2023-06-10T09:18:45;102347.50;;;25.04;35.08
75767;BME280;64378;55.596;13.014;2023-06-10T09:21:10;102352.22;;;25.03;35.13
75767;BME280;64378;55.596;13.014;2023-06-10T09:23:36;102351.38;;;25.03;35.06
75767;BME280;64378;55.596;13.014;2023-06-10T09:26:02;102348.59;;;25.03;35.06
75767;BME280;64378;55.596;13.014;2023-06-10T09:28:30;102353.31;;;25.02;34.83
75767;BME280;64378;55.596;13.014;2023-06-10T09:31:05;102368.22;;;25.01;34.91
75767;BME280;64378;55.596;13.014;2023-06-10T09:33:30;102350.78;;;25.01;35.05
75767;BME280;64378;55.596;13.014;2023-06-10T09:35:56;102360.16;;;25.00;34.92
75767;BME280;64378;55.596;13.014;2023-06-10T09:38:28;102359.34;;;24.99;34.86
75767;BME280;64378;55.596;13.014;2023-06-10T09:40:54;102356.59;;;24.99;34.93
75767;BME280;64378;55.596;13.014;2023-06-10T09:43:19;102351.31;;;24.98;35.26
75767;BME280;64378;55.596;13.014;2023-06-10T09:45:47;102351.31;;;24.98;35.14
75767;BME280;64378;55.596;13.014;2023-06-10T09:48:12;102355.19;;;24.97;35.14
75767;BME280;64378;55.596;13.014;2023-06-10T09:50:44;102357.94;;;24.97;35.06
75767;BME280;64378;55.596;13.014;2023-06-10T09:53:10;102357.09;;;24.96;35.17
75767;BME280;64378;55.596;13.014;2023-06-10T09:55:39;102355.19;;;24.97;35.30
75767;BME280;64378;55.596;13.014;2023-06-10T09:58:04;102359.88;;;24.96;35.28
75767;BME280;64378;55.596;13.014;2023-06-10T10:00:31;102359.03;;;24.96;35.20
75767;BME280;64378;55.596;13.014;2023-06-10T10:02:57;102364.56;;;24.96;35.35
75767;BME280;64378;55.596;13.014;2023-06-10T10:05:22;102367.56;;;24.94;34.88
75767;BME280;64378;55.596;13.014;2023-06-10T10:07:47;102367.56;;;24.94;34.94
75767;BME280;64378;55.596;13.014;2023-06-10T10:10:13;102364.81;;;24.94;34.96
75767;BME280;64378;55.596;13.014;2023-06-10T10:12:39;102370.31;;;24.94;35.44
75767;BME280;64378;55.596;13.014;2023-06-10T10:15:08;102364.00;;;24.94;35.32
75767;BME280;64378;55.596;13.014;2023-06-10T10:17:34;102360.38;;;24.93;35.20
75767;BME280;64378;55.596;13.014;2023-06-10T10:20:03;102361.75;;;24.91;34.96
75767;BME280;64378;55.596;13.014;2023-06-10T10:22:35;102354.84;;;24.93;35.17
75767;BME280;64378;55.596;13.014;2023-06-10T10:25:02;102348.50;;;24.93;35.22
75767;BME280;64378;55.596;13.014;2023-06-10T10:27:33;102346.56;;;24.93;34.80
75767;BME280;64378;55.596;13.014;2023-06-10T10:30:00;102347.66;;;24.92;35.14
75767;BME280;64378;55.596;13.014;2023-06-10T10:32:32;102356.78;;;24.93;35.54
75767;BME280;64378;55.596;13.014;2023-06-10T10:35:09;102354.03;;;24.93;35.05
75767;BME280;64378;55.596;13.014;2023-06-10T10:37:36;102346.84;;;24.92;35.26
75767;BME280;64378;55.596;13.014;2023-06-10T10:40:01;102357.03;;;24.91;35.24
75767;BME280;64378;55.596;13.014;2023-06-10T10:42:28;102358.97;;;24.91;35.08
75767;BME280;64378;55.596;13.014;2023-06-10T10:44:54;102352.34;;;24.92;34.96
75767;BME280;64378;55.596;13.014;2023-06-10T10:47:22;102358.69;;;24.92;35.38
75767;BME280;64378;55.596;13.014;2023-06-10T10:49:52;102358.97;;;24.91;35.39
75767;BME280;64378;55.596;13.014;2023-06-10T10:52:21;102358.97;;;24.91;35.00
75767;BME280;64378;55.596;13.014;2023-06-10T10:54:46;102357.31;;;24.90;35.38
75767;BME280;64378;55.596;13.014;2023-06-10T10:57:13;102358.97;;;24.91;35.15
75767;BME280;64378;55.596;13.014;2023-06-10T11:04:46;102360.06;;;24.90;35.35
75767;BME280;64378;55.596;13.014;2023-06-10T11:07:11;102350.94;;;24.89;35.18
75767;BME280;64378;55.596;13.014;2023-06-10T11:09:40;102354.78;;;24.88;35.40
75767;BME280;64378;55.596;13.014;2023-06-10T11:12:22;102359.22;;;24.89;35.08
75767;BME280;64378;55.596;13.014;2023-06-10T11:14:53;102366.69;;;24.89;35.20
75767;BME280;64378;55.596;13.014;2023-06-10T11:17:18;102352.88;;;24.89;35.32
75767;BME280;64378;55.596;13.014;2023-06-10T11:19:44;102360.31;;;24.88;35.33
75767;BME280;64378;55.596;13.014;2023-06-10T11:22:15;102352.88;;;24.89;35.09
75767;BME280;64378;55.596;13.014;2023-06-10T11:24:41;102352.03;;;24.88;35.01
75767;BME280;64378;55.596;13.014;2023-06-10T11:27:21;102357.53;;;24.88;35.04
75767;BME280;64378;55.596;13.014;2023-06-10T11:32:22;102363.06;;;24.88;35.03
75767;BME280;64378;55.596;13.014;2023-06-10T11:34:53;102360.31;;;24.88;35.17
75767;BME280;64378;55.596;13.014;2023-06-10T11:37:18;102359.50;;;24.88;35.11
75767;BME280;64378;55.596;13.014;2023-06-10T11:39:44;102365.00;;;24.88;35.27
75767;BME280;64378;55.596;13.014;2023-06-10T11:42:10;102351.19;;;24.88;35.27
75767;BME280;64378;55.596;13.014;2023-06-10T11:44:35;102361.41;;;24.87;35.24
75767;BME280;64378;55.596;13.014;2023-06-10T11:47:02;102363.34;;;24.87;35.08
75767;BME280;64378;55.596;13.014;2023-06-10T11:49:28;102344.00;;;24.87;35.31
75767;BME280;64378;55.596;13.014;2023-06-10T11:51:53;102357.81;;;24.87;35.07
75767;BME280;64378;55.596;13.014;2023-06-10T11:54:18;102350.63;;;24.86;35.19
75767;BME280;64378;55.596;13.014;2023-06-10T11:56:44;102356.97;;;24.86;35.27
75767;BME280;64378;55.596;13.014;2023-06-10T11:59:09;102360.00;;;24.85;35.34
75767;BME280;64378;55.596;13.014;2023-06-10T12:01:35;102366.34;;;24.85;35.11
75767;BME280;64378;55.596;13.014;2023-06-10T12:04:08;102356.41;;;24.84;35.35
75767;BME280;64378;55.596;13.014;2023-06-10T12:06:38;102358.06;;;24.85;35.09
75767;BME280;64378;55.596;13.014;2023-06-10T12:09:03;102353.91;;;24.83;34.98
75767;BME280;64378;55.596;13.014;2023-06-10T12:11:29;102362.75;;;24.85;35.05
75767;BME280;64378;55.596;13.014;2023-06-10T12:13:54;102371.03;;;24.85;35.35
75767;BME280;64378;55.596;13.014;2023-06-10T12:16:19;102364.69;;;24.84;35.22
75767;BME280;64378;55.596;13.014;2023-06-10T12:18:46;102377.38;;;24.85;35.30
75767;BME280;64378;55.596;13.014;2023-06-10T12:21:31;102359.41;;;24.83;35.12
75767;BME280;64378;55.596;13.014;2023-06-10T12:24:10;102358.31;;;24.84;35.04
75767;BME280;64378;55.596;13.014;2023-06-10T12:29:01;102368.28;;;24.85;35.19
75767;BME280;64378;55.596;13.014;2023-06-10T12:31:26;102362.19;;;24.83;34.78
75767;BME280;64378;55.596;13.014;2023-06-10T12:34:07;102363.28;;;24.82;35.02
75767;BME280;64378;55.596;13.014;2023-06-10T12:36:32;102371.56;;;24.82;34.77
75767;BME280;64378;55.596;13.014;2023-06-10T12:39:02;102353.06;;;24.82;34.98
75767;BME280;64378;55.596;13.014;2023-06-10T12:41:28;102359.69;;;24.81;34.98
75767;BME280;64378;55.596;13.014;2023-06-10T12:43:55;102359.69;;;24.81;35.06
75767;BME280;64378;55.596;13.014;2023-06-10T12:46:22;102356.94;;;24.81;35.03
75767;BME280;64378;55.596;13.014;2023-06-10T12:48:50;102371.56;;;24.82;34.69